createdAt,value
2022-09-15T00:02:22.116Z,99872.00
2022-09-15T00:04:48.668Z,99878.00
2022-09-15T00:07:15.782Z,99877.00
2022-09-15T00:09:42.589Z,99888.00
2022-09-15T00:12:09.173Z,99890.00
2022-09-15T00:14:35.903Z,99889.00
2022-09-15T00:17:02.396Z,99889.00
2022-09-15T00:19:28.860Z,99892.00
2022-09-15T00:21:55.286Z,99888.00
2022-09-15T00:24:22.989Z,99886.00
2022-09-15T00:26:49.515Z,99886.00
2022-09-15T00:29:15.983Z,99886.00
2022-09-15T00:31:42.391Z,99884.00
2022-09-15T00:34:12.072Z,99874.00
2022-09-15T00:36:38.660Z,99875.00
2022-09-15T00:39:05.533Z,99881.00
2022-09-15T00:41:31.970Z,99881.00
2022-09-15T00:44:18.223Z,99880.00
2022-09-15T00:47:15.290Z,99876.00
2022-09-15T00:49:40.317Z,99870.00
2022-09-15T00:52:16.132Z,99871.00
2022-09-15T00:55:03.786Z,99876.00
2022-09-15T00:57:37.016Z,99879.00
2022-09-15T01:00:08.351Z,99877.00
2022-09-15T01:02:35.770Z,99876.00
2022-09-15T01:05:05.574Z,99880.00
2022-09-15T01:07:40.143Z,99880.00
2022-09-15T01:10:12.284Z,99888.00
2022-09-15T01:12:41.483Z,99888.00
2022-09-15T01:15:08.782Z,99881.00
2022-09-15T01:17:45.432Z,99872.00
2022-09-15T01:20:56.349Z,99874.00
2022-09-15T01:23:40.920Z,99877.00
2022-09-15T01:26:34.502Z,99885.00
2022-09-15T01:29:39.067Z,99887.00
2022-09-15T01:32:48.296Z,99885.00
2022-09-15T01:35:33.770Z,99883.00
2022-09-15T01:38:24.742Z,99892.00
2022-09-15T01:41:02.049Z,99898.00
2022-09-15T01:43:29.704Z,99894.00
2022-09-15T01:45:58.680Z,99902.00
2022-09-15T01:48:28.204Z,99899.00
2022-09-15T01:50:57.762Z,99894.00
2022-09-15T01:53:24.580Z,99903.00
2022-09-15T01:56:05.151Z,99900.00
2022-09-15T01:58:32.800Z,99888.00
2022-09-15T02:01:05.772Z,99889.00
2022-09-15T02:03:51.479Z,99884.00
2022-09-15T02:06:40.771Z,99895.00
2022-09-15T02:09:17.958Z,99888.00
2022-09-15T02:12:03.656Z,99889.00
2022-09-15T02:14:55.907Z,99885.00
2022-09-15T02:17:23.892Z,99884.00
2022-09-15T02:19:57.396Z,99883.00
2022-09-15T02:22:33.085Z,99900.00
2022-09-15T02:25:07.180Z,99899.00
2022-09-15T02:27:37.817Z,99903.00
2022-09-15T02:30:09.490Z,99898.00
2022-09-15T02:32:38.774Z,99895.00
2022-09-15T02:35:08.330Z,99895.00
2022-09-15T02:37:37.354Z,99877.00
2022-09-15T02:40:05.860Z,99884.00
2022-09-15T02:42:33.524Z,99885.00
2022-09-15T02:45:00.772Z,99887.00
2022-09-15T02:47:28.516Z,99876.00
2022-09-15T02:49:55.663Z,99875.00
2022-09-15T02:52:24.302Z,99884.00
2022-09-15T02:54:50.720Z,99886.00
2022-09-15T02:57:17.226Z,99885.00
2022-09-15T03:00:04.392Z,99892.00
2022-09-15T03:02:30.990Z,99884.00
2022-09-15T03:04:57.540Z,99888.00
2022-09-15T03:07:25.021Z,99884.00
2022-09-15T03:09:51.656Z,99879.00
2022-09-15T03:12:18.099Z,99888.00
2022-09-15T03:14:45.347Z,99877.00
2022-09-15T03:17:12.713Z,99888.00
2022-09-15T03:19:39.124Z,99877.00
2022-09-15T03:22:05.628Z,99874.00
2022-09-15T03:24:32.076Z,99878.00
2022-09-15T03:26:59.763Z,99887.00
2022-09-15T03:29:26.269Z,99889.00
2022-09-15T03:31:52.790Z,99875.00
2022-09-15T03:34:20.341Z,99875.00
2022-09-15T03:36:46.847Z,99886.00
2022-09-15T03:39:13.404Z,99878.00
2022-09-15T03:41:39.831Z,99878.00
2022-09-15T03:44:06.242Z,99872.00
2022-09-15T03:46:32.934Z,99873.00
2022-09-15T03:48:59.348Z,99889.00
2022-09-15T03:51:25.786Z,99881.00
2022-09-15T03:53:52.422Z,99880.00
2022-09-15T03:56:26.047Z,99877.00
2022-09-15T03:58:53.314Z,99872.00
2022-09-15T04:01:21.155Z,99864.00
2022-09-15T04:03:51.150Z,99864.00
2022-09-15T04:06:19.404Z,99868.00
2022-09-15T04:08:46.075Z,99862.00
2022-09-15T04:11:13.874Z,99862.00
2022-09-15T04:13:41.980Z,99860.00
2022-09-15T04:16:11.972Z,99860.00
2022-09-15T04:18:38.427Z,99859.00
2022-09-15T04:21:07.480Z,99861.00
2022-09-15T04:23:35.648Z,99860.00
2022-09-15T04:26:05.472Z,99869.00
2022-09-15T04:28:35.995Z,99863.00
2022-09-15T04:31:05.443Z,99859.00
2022-09-15T04:33:32.372Z,99859.00
2022-09-15T04:36:04.117Z,99863.00
2022-09-15T04:38:31.607Z,99867.00
2022-09-15T04:41:00.042Z,99855.00
2022-09-15T04:43:27.218Z,99865.00
2022-09-15T04:45:54.286Z,99864.00
2022-09-15T04:48:21.687Z,99871.00
2022-09-15T04:50:48.437Z,99862.00
2022-09-15T04:53:15.750Z,99864.00
2022-09-15T04:55:42.518Z,99863.00
2022-09-15T04:58:09.190Z,99864.00
2022-09-15T05:00:46.127Z,99858.00
2022-09-15T05:03:14.046Z,99863.00
2022-09-15T05:05:42.356Z,99858.00
2022-09-15T05:08:08.813Z,99850.00
2022-09-15T05:10:35.482Z,99864.00
2022-09-15T05:13:01.890Z,99859.00
2022-09-15T05:15:29.750Z,99858.00
2022-09-15T05:17:56.158Z,99857.00
2022-09-15T05:20:22.896Z,99863.00
2022-09-15T05:22:49.308Z,99848.00
2022-09-15T05:25:16.903Z,99852.00
2022-09-15T05:27:43.499Z,99863.00
2022-09-15T05:30:35.903Z,99860.00
2022-09-15T05:32:57.091Z,99866.00
2022-09-15T05:35:23.625Z,99862.00
2022-09-15T05:37:50.324Z,99857.00
2022-09-15T05:40:16.890Z,99869.00
2022-09-15T05:42:43.336Z,99872.00
2022-09-15T05:45:10.259Z,99871.00
2022-09-15T05:47:36.746Z,99880.00
2022-09-15T05:50:03.232Z,99877.00
2022-09-15T05:52:29.687Z,99885.00
2022-09-15T05:54:59.132Z,99884.00
2022-09-15T05:57:25.866Z,99886.00
2022-09-15T05:59:52.395Z,99884.00
2022-09-15T06:02:19.046Z,99887.00
2022-09-15T06:04:45.595Z,99883.00
2022-09-15T06:07:12.371Z,99872.00
2022-09-15T06:09:39.319Z,99867.00
2022-09-15T06:12:05.994Z,99845.00
2022-09-15T06:14:33.640Z,99711.00
2022-09-15T06:17:00.079Z,99867.00
2022-09-15T06:19:26.505Z,99871.00
2022-09-15T06:21:53.998Z,99875.00
2022-09-15T06:24:20.458Z,99881.00
2022-09-15T06:26:47.214Z,99872.00
2022-09-15T06:29:13.757Z,99880.00
2022-09-15T06:31:40.474Z,99879.00
2022-09-15T06:34:08.569Z,99872.00
2022-09-15T06:36:37.588Z,99864.00
2022-09-15T06:39:04.597Z,99873.00
2022-09-15T06:41:52.485Z,99866.00
2022-09-15T06:44:18.376Z,99879.00
2022-09-15T06:46:44.887Z,99885.00
2022-09-15T06:49:11.312Z,99888.00
2022-09-15T06:51:38.076Z,99892.00
2022-09-15T06:54:05.602Z,99887.00
2022-09-15T06:56:35.866Z,99894.00
2022-09-15T06:59:04.435Z,99905.00
2022-09-15T07:01:32.280Z,99910.00
2022-09-15T07:04:01.197Z,99909.00
2022-09-15T07:06:29.357Z,99910.00
2022-09-15T07:08:56.649Z,99907.00
2022-09-15T07:11:23.183Z,99908.00
2022-09-15T07:13:49.999Z,99905.00
2022-09-15T07:16:18.189Z,99901.00
2022-09-15T07:18:48.689Z,99914.00
2022-09-15T07:21:19.897Z,99905.00
2022-09-15T07:23:47.544Z,99920.00
2022-09-15T07:26:15.007Z,99913.00
2022-09-15T07:28:43.896Z,99918.00
2022-09-15T07:31:13.343Z,99918.00
2022-09-15T07:33:39.820Z,99920.00
2022-09-15T07:36:08.043Z,99936.00
2022-09-15T07:38:35.182Z,99941.00
2022-09-15T07:41:12.496Z,99936.00
2022-09-15T07:43:39.528Z,99932.00
2022-09-15T07:46:06.216Z,99935.00
2022-09-15T07:48:32.960Z,99930.00
2022-09-15T07:50:59.951Z,99931.00
2022-09-15T07:53:30.590Z,99931.00
2022-09-15T07:55:57.647Z,99918.00
2022-09-15T07:58:24.805Z,99923.00
2022-09-15T08:00:51.290Z,99921.00
2022-09-15T08:03:17.919Z,99920.00
2022-09-15T08:05:45.822Z,99923.00
2022-09-15T08:08:12.874Z,99912.00
2022-09-15T08:10:41.067Z,99918.00
2022-09-15T08:13:07.625Z,99929.00
2022-09-15T08:15:36.987Z,99932.00
2022-09-15T08:18:03.757Z,99931.00
2022-09-15T08:20:31.441Z,99938.00
2022-09-15T08:22:58.143Z,99938.00
2022-09-15T08:25:24.581Z,99937.00
2022-09-15T08:27:52.711Z,99944.00
2022-09-15T08:30:19.121Z,99928.00
2022-09-15T08:32:46.852Z,99929.00
2022-09-15T08:35:14.922Z,99935.00
2022-09-15T08:37:41.664Z,99942.00
2022-09-15T08:40:16.841Z,99938.00
2022-09-15T08:42:46.753Z,99939.00
2022-09-15T08:45:23.222Z,99940.00
2022-09-15T08:47:55.964Z,99944.00
2022-09-15T08:50:33.893Z,99942.00
2022-09-15T08:53:06.899Z,99947.00
2022-09-15T08:55:41.476Z,99940.00
2022-09-15T08:58:15.100Z,99935.00
2022-09-15T09:00:45.668Z,99937.00
2022-09-15T09:03:41.023Z,99936.00
2022-09-15T09:06:21.184Z,99923.00
2022-09-15T09:09:20.271Z,99916.00
2022-09-15T09:12:29.545Z,99930.00
2022-09-15T09:15:16.049Z,99925.00
2022-09-15T09:18:19.641Z,99922.00
2022-09-15T09:21:03.041Z,99928.00
2022-09-15T09:23:32.945Z,99926.00
2022-09-15T09:26:01.874Z,99926.00
2022-09-15T09:28:37.982Z,99910.00
2022-09-15T09:31:07.800Z,99913.00
2022-09-15T09:33:47.265Z,99924.00
2022-09-15T09:36:14.559Z,99906.00
2022-09-15T09:38:45.161Z,99905.00
2022-09-15T09:41:17.805Z,99912.00
2022-09-15T09:43:47.381Z,99931.00
2022-09-15T09:46:16.327Z,99909.00
2022-09-15T09:48:56.343Z,99941.00
2022-09-15T09:51:37.775Z,99933.00
2022-09-15T09:54:12.656Z,99933.00
2022-09-15T09:56:39.778Z,99920.00
2022-09-15T09:59:28.331Z,99934.00
2022-09-15T10:02:20.644Z,99918.00
2022-09-15T10:05:06.745Z,99922.00
2022-09-15T10:07:34.445Z,99941.00
2022-09-15T10:10:02.167Z,99938.00
2022-09-15T10:12:32.007Z,99934.00
2022-09-15T10:15:02.468Z,99937.00
2022-09-15T10:17:46.772Z,99924.00
2022-09-15T10:20:28.171Z,99940.00
2022-09-15T10:23:09.772Z,99932.00
2022-09-15T10:25:58.152Z,99939.00
2022-09-15T10:28:27.240Z,99918.00
2022-09-15T10:31:13.675Z,99954.00
2022-09-15T10:33:44.969Z,99932.00
2022-09-15T10:36:13.059Z,99948.00
2022-09-15T10:38:41.806Z,99936.00
2022-09-15T10:41:27.809Z,99937.00
2022-09-15T10:44:07.989Z,99926.00
2022-09-15T10:47:08.815Z,99940.00
2022-09-15T10:50:13.797Z,99915.00
2022-09-15T10:53:06.067Z,99912.00
2022-09-15T10:55:52.776Z,99928.00
2022-09-15T10:58:47.295Z,99921.00
2022-09-15T11:01:31.249Z,99952.00
2022-09-15T11:04:31.333Z,99930.00
2022-09-15T11:07:09.240Z,99951.00
2022-09-15T11:09:45.605Z,99944.00
2022-09-15T11:12:39.873Z,99939.00
2022-09-15T11:15:30.859Z,99951.00
2022-09-15T11:18:08.748Z,99952.00
2022-09-15T11:20:41.765Z,99947.00
2022-09-15T11:23:20.096Z,99949.00
2022-09-15T11:25:54.928Z,99950.00
2022-09-15T11:28:40.477Z,99945.00
2022-09-15T11:31:16.639Z,99936.00
2022-09-15T11:34:11.769Z,99947.00
2022-09-15T11:36:47.213Z,99952.00
2022-09-15T11:39:23.951Z,99957.00
2022-09-15T11:42:01.101Z,99959.00
2022-09-15T11:44:38.079Z,99969.00
2022-09-15T11:47:30.435Z,99967.00
2022-09-15T11:50:03.432Z,99960.00
2022-09-15T11:53:18.183Z,99966.00
2022-09-15T11:56:13.822Z,99961.00
2022-09-15T11:59:01.597Z,99965.00
2022-09-15T12:01:35.568Z,99956.00
2022-09-15T12:04:31.841Z,99951.00
2022-09-15T12:07:06.235Z,99926.00
2022-09-15T12:09:35.377Z,99934.00
2022-09-15T12:12:08.404Z,99933.00
2022-09-15T12:14:44.814Z,99919.00
2022-09-15T12:17:29.702Z,99936.00
2022-09-15T12:20:07.537Z,99934.00
2022-09-15T12:22:48.855Z,99921.00
2022-09-15T12:25:29.309Z,99922.00
2022-09-15T12:28:26.965Z,99906.00
2022-09-15T12:31:25.634Z,99913.00
2022-09-15T12:33:54.674Z,99907.00
2022-09-15T12:36:36.678Z,99941.00
2022-09-15T12:39:06.155Z,99960.00
2022-09-15T12:41:33.172Z,99958.00
2022-09-15T12:44:14.409Z,99950.00
2022-09-15T12:46:41.310Z,99970.00
2022-09-15T12:49:17.886Z,99945.00
2022-09-15T12:51:49.811Z,99942.00
2022-09-15T12:54:27.127Z,99926.00
2022-09-15T12:56:54.627Z,99936.00
2022-09-15T12:59:27.885Z,99913.00
2022-09-15T13:01:55.924Z,99923.00
2022-09-15T13:04:40.849Z,99924.00
2022-09-15T13:07:16.204Z,99921.00
2022-09-15T13:09:56.756Z,99928.00
2022-09-15T13:12:26.431Z,99924.00
2022-09-15T13:14:55.853Z,99942.00
2022-09-15T13:17:25.507Z,99928.00
2022-09-15T13:20:00.067Z,99932.00
2022-09-15T13:22:32.015Z,99933.00
2022-09-15T13:25:16.866Z,99925.00
2022-09-15T13:27:45.786Z,99932.00
2022-09-15T13:30:30.947Z,99928.00
2022-09-15T13:33:13.460Z,99901.00
2022-09-15T13:36:00.548Z,99905.00
2022-09-15T13:39:07.952Z,99905.00
2022-09-15T13:42:05.826Z,99898.00
2022-09-15T13:44:46.357Z,99903.00
2022-09-15T13:47:33.479Z,99887.00
2022-09-15T13:50:18.590Z,99901.00
2022-09-15T13:53:33.591Z,99909.00
2022-09-15T13:56:05.914Z,99898.00
2022-09-15T14:01:22.897Z,99877.00
2022-09-15T14:03:53.651Z,99905.00
2022-09-15T14:06:25.834Z,99899.00
2022-09-15T14:08:57.032Z,99887.00
2022-09-15T14:11:28.646Z,99890.00
2022-09-15T14:13:57.057Z,99871.00
2022-09-15T14:16:34.936Z,99865.00
2022-09-15T14:19:05.925Z,99856.00
2022-09-15T14:21:34.476Z,99890.00
2022-09-15T14:24:06.328Z,99889.00
2022-09-15T14:26:35.587Z,99891.00
2022-09-15T14:29:07.045Z,99904.00
2022-09-15T14:31:39.294Z,99904.00
2022-09-15T14:34:09.727Z,99921.00
2022-09-15T14:36:36.267Z,99913.00
2022-09-15T14:39:08.961Z,99917.00
2022-09-15T14:41:36.612Z,99921.00
2022-09-15T14:47:25.366Z,99918.00
2022-09-15T14:50:09.719Z,99922.00
2022-09-15T14:52:40.842Z,99922.00
2022-09-15T14:55:18.872Z,99921.00
2022-09-15T14:57:55.505Z,99923.00
2022-09-15T15:00:27.329Z,99921.00
2022-09-15T15:03:08.986Z,99928.00
2022-09-15T15:05:40.593Z,99926.00
2022-09-15T15:08:10.060Z,99926.00
2022-09-15T15:10:37.107Z,99917.00
2022-09-15T15:13:09.498Z,99930.00
2022-09-15T15:15:37.868Z,99951.00
2022-09-15T15:18:07.360Z,99942.00
2022-09-15T15:20:33.792Z,99942.00
2022-09-15T15:23:32.822Z,99949.00
2022-09-15T15:26:26.852Z,99948.00
2022-09-15T15:28:53.537Z,99943.00
2022-09-15T15:31:26.679Z,99942.00
2022-09-15T15:33:59.703Z,99947.00
2022-09-15T15:36:28.467Z,99950.00
2022-09-15T15:38:57.497Z,99945.00
2022-09-15T15:41:27.183Z,99950.00
2022-09-15T15:44:03.119Z,99959.00
2022-09-15T15:46:53.234Z,99957.00
2022-09-15T15:49:21.287Z,99953.00
2022-09-15T15:51:48.804Z,99959.00
2022-09-15T15:54:15.268Z,99963.00
2022-09-15T15:56:41.866Z,99957.00
2022-09-15T15:59:12.492Z,99955.00
2022-09-15T16:01:39.544Z,99964.00
2022-09-15T16:04:10.982Z,99961.00
2022-09-15T16:06:37.763Z,99955.00
2022-09-15T16:09:05.880Z,99955.00
2022-09-15T16:11:32.335Z,99951.00
2022-09-15T16:13:59.289Z,99952.00
2022-09-15T16:16:27.501Z,99954.00
2022-09-15T16:18:54.239Z,99953.00
2022-09-15T16:21:37.085Z,99959.00
2022-09-15T16:24:05.175Z,99956.00
2022-09-15T16:26:31.722Z,99956.00
2022-09-15T16:28:59.530Z,99951.00
2022-09-15T16:31:25.998Z,99952.00
2022-09-15T16:33:52.532Z,99954.00
2022-09-15T16:36:19.124Z,99958.00
2022-09-15T16:38:45.639Z,99952.00
2022-09-15T16:41:18.116Z,99966.00
2022-09-15T16:43:45.812Z,99964.00
2022-09-15T16:46:13.481Z,99964.00
2022-09-15T16:48:42.677Z,99968.00
2022-09-15T16:51:29.759Z,99970.00
2022-09-15T16:53:57.290Z,99971.00
2022-09-15T16:56:23.750Z,99968.00
2022-09-15T16:58:54.790Z,99968.00
2022-09-15T17:01:25.225Z,99962.00
2022-09-15T17:03:54.074Z,99960.00
2022-09-15T17:06:21.932Z,99953.00
2022-09-15T17:08:48.363Z,99955.00
2022-09-15T17:11:17.391Z,99959.00
2022-09-15T17:13:44.450Z,99952.00
2022-09-15T17:16:13.136Z,99956.00
2022-09-15T17:18:39.642Z,99957.00
2022-09-15T17:21:06.315Z,99958.00
2022-09-15T17:23:37.869Z,99955.00
2022-09-15T17:26:09.018Z,99965.00
2022-09-15T17:28:36.485Z,99970.00
2022-09-15T17:31:06.476Z,99971.00
2022-09-15T17:33:33.326Z,99961.00
2022-09-15T17:36:00.255Z,99955.00
2022-09-15T17:38:27.290Z,99962.00
2022-09-15T17:40:57.166Z,99968.00
2022-09-15T17:43:27.875Z,99968.00
2022-09-15T17:45:54.973Z,99971.00
2022-09-15T17:48:22.511Z,99980.00
2022-09-15T17:50:50.406Z,99982.00
2022-09-15T17:53:26.709Z,99989.00
2022-09-15T17:55:55.375Z,99986.00
2022-09-15T17:58:23.090Z,99983.00
2022-09-15T18:00:50.271Z,99990.00
2022-09-15T18:03:33.143Z,99981.00
2022-09-15T18:06:03.715Z,99982.00
2022-09-15T18:08:30.807Z,99974.00
2022-09-15T18:10:57.223Z,99975.00
2022-09-15T18:13:30.177Z,99981.00
2022-09-15T18:15:58.425Z,99984.00
2022-09-15T18:18:26.944Z,99981.00
2022-09-15T18:20:55.958Z,99981.00
2022-09-15T18:23:27.262Z,99988.00
2022-09-15T18:25:54.102Z,99999.00
2022-09-15T18:28:20.699Z,99999.00
2022-09-15T18:30:48.987Z,100001.00
2022-09-15T18:33:17.690Z,99993.00
2022-09-15T18:35:44.691Z,99998.00
2022-09-15T18:38:11.766Z,99998.00
2022-09-15T18:40:38.722Z,100008.00
2022-09-15T18:43:05.614Z,100004.00
2022-09-15T18:45:32.394Z,100010.00
2022-09-15T18:48:01.547Z,100004.00
2022-09-15T18:50:28.037Z,100004.00
2022-09-15T18:52:54.594Z,100007.00
2022-09-15T18:55:22.687Z,100006.00
2022-09-15T18:57:49.303Z,100000.00
2022-09-15T19:00:18.818Z,100006.00
2022-09-15T19:02:45.734Z,100009.00
2022-09-15T19:05:15.543Z,100010.00
2022-09-15T19:07:43.900Z,100017.00
2022-09-15T19:10:14.096Z,100005.00
2022-09-15T19:12:40.831Z,100013.00
2022-09-15T19:15:11.319Z,100017.00
2022-09-15T19:17:39.409Z,100005.00
2022-09-15T19:20:08.835Z,100003.00
2022-09-15T19:22:35.888Z,100003.00
2022-09-15T19:25:02.922Z,100004.00
2022-09-15T19:27:31.900Z,100001.00
2022-09-15T19:29:58.678Z,99998.00
2022-09-15T19:32:25.074Z,100004.00
2022-09-15T19:34:51.509Z,100001.00
2022-09-15T19:37:20.373Z,100000.00
2022-09-15T19:39:48.234Z,100005.00
2022-09-15T19:44:41.846Z,100000.00
2022-09-15T19:47:08.856Z,100009.00
2022-09-15T19:49:36.478Z,100010.00
2022-09-15T19:52:02.961Z,100024.00
2022-09-15T19:54:30.478Z,100017.00
2022-09-15T19:56:57.056Z,100016.00
2022-09-15T19:59:28.676Z,100016.00
2022-09-15T20:01:56.811Z,100014.00
2022-09-15T20:04:23.406Z,100010.00
2022-09-15T20:06:49.955Z,100016.00
2022-09-15T20:09:16.549Z,100017.00
2022-09-15T20:11:45.883Z,100020.00
2022-09-15T20:14:12.333Z,100024.00
2022-09-15T20:16:38.960Z,100016.00
2022-09-15T20:19:06.438Z,100026.00
2022-09-15T20:21:49.982Z,100035.00
2022-09-15T20:24:17.903Z,100028.00
2022-09-15T20:26:44.333Z,100029.00
2022-09-15T20:29:10.911Z,100036.00
2022-09-15T20:31:37.469Z,100030.00
2022-09-15T20:34:03.883Z,100029.00
2022-09-15T20:36:36.297Z,100036.00
2022-09-15T20:39:04.927Z,100024.00
2022-09-15T20:41:31.997Z,100032.00
2022-09-15T20:43:58.490Z,100030.00
2022-09-15T20:46:27.256Z,100032.00
2022-09-15T20:48:56.079Z,100031.00
2022-09-15T20:51:28.068Z,100040.00
2022-09-15T20:53:56.853Z,100036.00
2022-09-15T20:56:25.558Z,100033.00
2022-09-15T20:58:53.555Z,100033.00
2022-09-15T21:01:25.704Z,100033.00
2022-09-15T21:03:53.329Z,100032.00
2022-09-15T21:06:22.266Z,100042.00
2022-09-15T21:08:50.027Z,100037.00
2022-09-15T21:11:19.384Z,100028.00
2022-09-15T21:13:48.294Z,100039.00
2022-09-15T21:16:18.455Z,100040.00
2022-09-15T21:18:45.674Z,100042.00
2022-09-15T21:21:17.503Z,100039.00
2022-09-15T21:23:56.227Z,100035.00
2022-09-15T21:26:25.210Z,100050.00
2022-09-15T21:28:52.750Z,100045.00
2022-09-15T21:31:24.422Z,100045.00
2022-09-15T21:33:52.077Z,100044.00
2022-09-15T21:36:22.263Z,100047.00
2022-09-15T21:38:51.028Z,100038.00
2022-09-15T21:41:20.831Z,100039.00
2022-09-15T21:43:48.339Z,100041.00
2022-09-15T21:46:20.185Z,100039.00
2022-09-15T21:48:48.004Z,100042.00
2022-09-15T21:51:23.502Z,100045.00
2022-09-15T21:53:52.130Z,100053.00
2022-09-15T21:56:18.878Z,100045.00
2022-09-15T21:58:45.516Z,100052.00
2022-09-15T22:01:23.474Z,100059.00
2022-09-15T22:04:05.298Z,100053.00
2022-09-15T22:06:34.443Z,100056.00
2022-09-15T22:09:03.310Z,100057.00
2022-09-15T22:11:29.819Z,100057.00
2022-09-15T22:13:56.393Z,100062.00
2022-09-15T22:16:24.669Z,100067.00
2022-09-15T22:18:51.788Z,100074.00
2022-09-15T22:21:20.432Z,100078.00
2022-09-15T22:23:48.317Z,100070.00
2022-09-15T22:26:21.067Z,100076.00
2022-09-15T22:28:47.527Z,100075.00
2022-09-15T22:31:15.759Z,100074.00
2022-09-15T22:33:44.769Z,100073.00
2022-09-15T22:36:26.605Z,100081.00
2022-09-15T22:38:56.095Z,100077.00
2022-09-15T22:41:25.901Z,100076.00
2022-09-15T22:43:53.279Z,100079.00
2022-09-15T22:46:20.111Z,100079.00
2022-09-15T22:48:47.279Z,100078.00
2022-09-15T22:51:14.739Z,100084.00
2022-09-15T22:53:41.556Z,100080.00
2022-09-15T22:56:14.848Z,100083.00
2022-09-15T22:58:43.850Z,100087.00
2022-09-15T23:01:16.210Z,100079.00
2022-09-15T23:03:47.385Z,100080.00
2022-09-15T23:06:14.256Z,100086.00
2022-09-15T23:08:41.042Z,100075.00
2022-09-15T23:11:12.444Z,100074.00
2022-09-15T23:13:39.677Z,100075.00
2022-09-15T23:16:07.182Z,100077.00
2022-09-15T23:18:34.904Z,100078.00
2022-09-15T23:21:04.061Z,100081.00
2022-09-15T23:23:30.515Z,100078.00
2022-09-15T23:25:57.023Z,100079.00
2022-09-15T23:28:23.993Z,100074.00
2022-09-15T23:30:55.406Z,100075.00
2022-09-15T23:33:22.673Z,100070.00
2022-09-15T23:35:50.047Z,100070.00
2022-09-15T23:38:18.230Z,100069.00
2022-09-15T23:40:45.536Z,100077.00
2022-09-15T23:43:14.207Z,100075.00
2022-09-15T23:45:41.272Z,100081.00
2022-09-15T23:48:08.285Z,100082.00
2022-09-15T23:50:35.975Z,100075.00
2022-09-15T23:53:02.851Z,100078.00
2022-09-15T23:55:30.536Z,100083.00
2022-09-15T23:57:56.964Z,100081.00
